createdAt,value
2022-09-21T00:01:18.740Z,99613.06
2022-09-21T00:03:45.858Z,99610.50
2022-09-21T00:06:17.246Z,99606.22
2022-09-21T00:08:44.443Z,99607.91
2022-09-21T00:11:15.193Z,99589.91
2022-09-21T00:13:42.389Z,99601.91
2022-09-21T00:16:10.385Z,99596.75
2022-09-21T00:18:37.630Z,99608.78
2022-09-21T00:21:08.987Z,99607.06
2022-09-21T00:23:36.484Z,99618.22
2022-09-21T00:26:10.752Z,99610.50
2022-09-21T00:28:37.982Z,99601.03
2022-09-21T00:31:05.640Z,99592.50
2022-09-21T00:33:32.931Z,99608.78
2022-09-21T00:36:07.324Z,99605.34
2022-09-21T00:38:34.442Z,99604.47
2022-09-21T00:41:01.345Z,99596.78
2022-09-21T00:43:28.373Z,99601.03
2022-09-21T00:46:00.551Z,99596.75
2022-09-21T00:48:28.183Z,99593.34
2022-09-21T00:50:55.654Z,99591.63
2022-09-21T00:53:22.910Z,99587.34
2022-09-21T00:55:52.235Z,99599.34
2022-09-21T00:58:21.115Z,99589.94
2022-09-21T01:00:48.240Z,99594.22
2022-09-21T01:03:17.374Z,99598.50
2022-09-21T01:05:44.284Z,99602.81
2022-09-21T01:08:12.490Z,99589.09
2022-09-21T01:11:25.743Z,99601.94
2022-09-21T01:14:20.313Z,99591.66
2022-09-21T01:17:14.961Z,99594.25
2022-09-21T01:19:58.965Z,99595.06
2022-09-21T01:22:33.707Z,99597.69
2022-09-21T01:25:32.340Z,99599.38
2022-09-21T01:28:18.068Z,99605.38
2022-09-21T01:30:48.960Z,99598.53
2022-09-21T01:33:20.681Z,99596.81
2022-09-21T01:35:49.459Z,99601.09
2022-09-21T01:38:20.031Z,99610.53
2022-09-21T01:40:50.480Z,99601.09
2022-09-21T01:43:25.510Z,99597.66
2022-09-21T01:45:54.770Z,99606.25
2022-09-21T01:48:22.513Z,99589.94
2022-09-21T01:50:54.308Z,99596.81
2022-09-21T01:53:37.507Z,99608.81
2022-09-21T01:56:12.030Z,99593.41
2022-09-21T01:59:08.843Z,99602.81
2022-09-21T02:01:38.764Z,99594.25
2022-09-21T02:04:09.628Z,99604.53
2022-09-21T02:06:36.636Z,99612.25
2022-09-21T02:09:03.595Z,99599.38
2022-09-21T02:11:30.520Z,99602.81
2022-09-21T02:13:57.471Z,99608.81
2022-09-21T02:16:39.805Z,99600.25
2022-09-21T02:19:44.300Z,99613.09
2022-09-21T02:22:18.908Z,99607.94
2022-09-21T02:24:48.152Z,99604.53
2022-09-21T02:27:24.409Z,99618.25
2022-09-21T02:29:52.917Z,99620.81
2022-09-21T02:32:28.930Z,99621.66
2022-09-21T02:35:04.131Z,99617.38
2022-09-21T02:38:18.260Z,99626.81
2022-09-21T02:40:54.197Z,99633.66
2022-09-21T02:43:39.406Z,99624.22
2022-09-21T02:46:12.463Z,99605.34
2022-09-21T02:48:43.415Z,99625.94
2022-09-21T02:51:12.046Z,99620.78
2022-09-21T02:53:39.130Z,99618.22
2022-09-21T02:56:07.514Z,99615.66
2022-09-21T02:58:36.293Z,99626.81
2022-09-21T03:01:08.799Z,99630.25
2022-09-21T03:03:35.960Z,99625.09
2022-09-21T03:06:03.175Z,99631.94
2022-09-21T03:08:30.613Z,99626.78
2022-09-21T03:10:57.984Z,99633.66
2022-09-21T03:13:25.051Z,99634.50
2022-09-21T03:16:04.999Z,99643.09
2022-09-21T03:18:32.065Z,99628.50
2022-09-21T03:20:59.249Z,99650.81
2022-09-21T03:23:26.192Z,99642.22
2022-09-21T03:25:53.115Z,99661.09
2022-09-21T03:28:20.177Z,99649.06
2022-09-21T03:30:48.798Z,99659.34
2022-09-21T03:33:16.198Z,99641.34
2022-09-21T03:35:43.218Z,99637.06
2022-09-21T03:38:10.199Z,99658.53
2022-09-21T03:40:37.182Z,99647.38
2022-09-21T03:43:04.198Z,99660.22
2022-09-21T03:45:31.076Z,99659.34
2022-09-21T03:47:58.491Z,99660.22
2022-09-21T03:50:26.607Z,99661.97
2022-09-21T03:52:53.548Z,99669.69
2022-09-21T03:55:20.517Z,99664.50
2022-09-21T03:57:48.218Z,99663.66
2022-09-21T04:00:15.349Z,99666.25
2022-09-21T04:02:42.569Z,99675.66
2022-09-21T04:05:10.625Z,99666.22
2022-09-21T04:07:37.987Z,99667.06
2022-09-21T04:10:06.172Z,99679.09
2022-09-21T04:12:34.836Z,99665.34
2022-09-21T04:15:02.086Z,99673.94
2022-09-21T04:17:29.520Z,99683.38
2022-09-21T04:19:56.889Z,99661.03
2022-09-21T04:22:25.018Z,99686.81
2022-09-21T04:24:52.178Z,99688.50
2022-09-21T04:27:19.149Z,99696.22
2022-09-21T04:29:46.108Z,99698.78
2022-09-21T04:32:12.981Z,99698.78
2022-09-21T04:34:40.336Z,99703.94
2022-09-21T04:37:11.985Z,99709.94
2022-09-21T04:39:38.932Z,99704.81
2022-09-21T04:42:06.204Z,99715.94
2022-09-21T04:44:33.192Z,99705.66
2022-09-21T04:47:00.501Z,99697.91
2022-09-21T04:49:27.541Z,99707.38
2022-09-21T04:51:54.443Z,99697.09
2022-09-21T04:54:21.472Z,99708.25
2022-09-21T04:56:48.387Z,99701.38
2022-09-21T04:59:15.344Z,99693.66
2022-09-21T05:01:42.311Z,99708.25
2022-09-21T05:04:09.298Z,99700.50
2022-09-21T05:06:36.162Z,99708.25
2022-09-21T05:09:21.796Z,99705.69
2022-09-21T05:11:48.745Z,99703.06
2022-09-21T05:14:15.752Z,99709.09
2022-09-21T05:16:42.940Z,99716.81
2022-09-21T05:19:09.833Z,99710.81
2022-09-21T05:21:37.274Z,99704.81
2022-09-21T05:24:04.397Z,99714.22
2022-09-21T05:26:31.320Z,99708.25
2022-09-21T05:28:58.655Z,99705.63
2022-09-21T05:31:44.536Z,99723.69
2022-09-21T05:34:38.369Z,99721.94
2022-09-21T05:37:13.272Z,99724.50
2022-09-21T05:39:40.912Z,99727.09
2022-09-21T05:42:10.496Z,99723.69
2022-09-21T05:44:37.778Z,99733.09
2022-09-21T05:47:13.296Z,99727.97
2022-09-21T05:49:59.803Z,99726.25
2022-09-21T05:52:39.949Z,99737.38
2022-09-21T05:55:35.591Z,99734.81
2022-09-21T05:58:10.478Z,99741.69
2022-09-21T06:00:47.955Z,99730.56
2022-09-21T06:03:23.955Z,99739.13
2022-09-21T06:05:51.228Z,99745.13
2022-09-21T06:08:18.176Z,99747.72
2022-09-21T06:10:45.493Z,99735.72
2022-09-21T06:13:12.399Z,99732.31
2022-09-21T06:15:39.436Z,99727.16
2022-09-21T06:18:07.079Z,99738.28
2022-09-21T06:20:34.130Z,99741.75
2022-09-21T06:23:09.007Z,99730.63
2022-09-21T06:25:35.977Z,99743.47
2022-09-21T06:28:05.885Z,99734.03
2022-09-21T06:30:34.739Z,99731.44
2022-09-21T06:33:02.338Z,99729.75
2022-09-21T06:35:29.571Z,99722.03
2022-09-21T06:38:06.895Z,99734.91
2022-09-21T06:40:35.337Z,99741.78
2022-09-21T06:43:02.738Z,99737.47
2022-09-21T06:45:30.197Z,99742.63
2022-09-21T06:47:57.205Z,99761.50
2022-09-21T06:50:24.255Z,99761.50
2022-09-21T06:52:51.532Z,99764.09
2022-09-21T06:55:18.600Z,99758.09
2022-09-21T06:57:45.728Z,99764.94
2022-09-21T07:00:15.705Z,99772.66
2022-09-21T07:02:44.688Z,99776.97
2022-09-21T07:05:12.388Z,99759.78
2022-09-21T07:07:40.583Z,99776.09
2022-09-21T07:10:12.385Z,99751.22
2022-09-21T07:12:41.933Z,99776.94
2022-09-21T07:15:10.518Z,99774.38
2022-09-21T07:17:39.897Z,99764.03
2022-09-21T07:20:08.489Z,99751.19
2022-09-21T07:22:35.694Z,99770.06
2022-09-21T07:25:04.459Z,99770.94
2022-09-21T07:27:31.914Z,99758.94
2022-09-21T07:29:58.843Z,99754.63
2022-09-21T07:32:28.616Z,99764.91
2022-09-21T07:34:57.247Z,99779.50
2022-09-21T07:37:27.509Z,99775.19
2022-09-21T07:39:54.936Z,99766.56
2022-09-21T07:42:22.926Z,99777.72
2022-09-21T07:44:51.043Z,99788.00
2022-09-21T07:47:19.581Z,99783.72
2022-09-21T07:49:47.256Z,99788.84
2022-09-21T07:52:15.632Z,99779.41
2022-09-21T07:54:42.638Z,99788.81
2022-09-21T07:57:27.920Z,99753.59
2022-09-21T07:59:58.501Z,99784.47
2022-09-21T08:02:25.642Z,99780.16
2022-09-21T08:04:53.749Z,99782.69
2022-09-21T08:07:20.774Z,99768.91
2022-09-21T08:09:49.588Z,99754.25
2022-09-21T08:12:18.868Z,99769.66
2022-09-21T08:14:45.943Z,99769.59
2022-09-21T08:17:12.944Z,99775.59
2022-09-21T08:19:40.023Z,99761.84
2022-09-21T08:22:08.523Z,99759.22
2022-09-21T08:24:36.062Z,99768.63
2022-09-21T08:27:05.477Z,99772.91
2022-09-21T08:29:32.423Z,99772.91
2022-09-21T08:31:59.475Z,99783.19
2022-09-21T08:34:26.646Z,99790.00
2022-09-21T08:36:55.742Z,99783.16
2022-09-21T08:39:24.139Z,99786.63
2022-09-21T08:45:31.392Z,99802.06
2022-09-21T08:47:59.204Z,99796.91
2022-09-21T08:50:39.793Z,99800.25
2022-09-21T08:53:18.611Z,99797.69
2022-09-21T08:55:45.693Z,99785.69
2022-09-21T08:58:23.544Z,99795.91
2022-09-21T09:01:15.841Z,99795.06
2022-09-21T09:04:11.971Z,99784.75
2022-09-21T09:06:42.727Z,99795.03
2022-09-21T09:09:28.582Z,99790.66
2022-09-21T09:12:21.879Z,99793.19
2022-09-21T09:18:29.185Z,99792.22
2022-09-21T09:21:09.965Z,99786.94
2022-09-21T09:23:41.905Z,99781.72
2022-09-21T09:26:14.418Z,99772.09
2022-09-21T09:29:26.433Z,99780.72
2022-09-21T09:32:05.051Z,99773.75
2022-09-21T09:34:35.593Z,99775.34
2022-09-21T09:37:21.175Z,99746.13
2022-09-21T09:39:54.448Z,99751.09
2022-09-21T09:42:52.725Z,99762.25
2022-09-21T09:45:55.761Z,99754.44
2022-09-21T09:48:29.070Z,99760.44
2022-09-21T09:50:56.327Z,99748.31
2022-09-21T09:53:25.021Z,99735.41
2022-09-21T09:55:53.489Z,99746.44
2022-09-21T09:58:39.306Z,99757.53
2022-09-21T10:04:07.176Z,99742.97
2022-09-21T10:06:34.676Z,99748.00
2022-09-21T10:11:47.339Z,99729.91
2022-09-21T10:14:23.546Z,99732.22
2022-09-21T10:16:52.580Z,99715.03
2022-09-21T10:19:24.754Z,99741.41
2022-09-21T10:24:42.599Z,99728.19
2022-09-21T10:27:14.013Z,99716.00
2022-09-21T10:29:42.735Z,99721.72
2022-09-21T10:32:14.784Z,99724.09
2022-09-21T10:37:46.197Z,99743.69
2022-09-21T10:40:22.781Z,99740.88
2022-09-21T10:42:51.255Z,99747.63
2022-09-21T10:45:30.636Z,99744.91
2022-09-21T10:47:57.669Z,99739.56
2022-09-21T10:50:37.866Z,99747.16
2022-09-21T10:53:11.069Z,99741.03
2022-09-21T10:56:15.972Z,99744.41
2022-09-21T10:59:21.917Z,99747.06
2022-09-21T11:01:53.797Z,99724.78
2022-09-21T11:04:45.232Z,99730.69
2022-09-21T11:07:22.754Z,99742.72
2022-09-21T11:10:12.297Z,99735.88
2022-09-21T11:12:51.002Z,99748.78
2022-09-21T11:15:23.792Z,99747.91
2022-09-21T11:18:15.438Z,99743.75
2022-09-21T11:20:54.987Z,99737.00
2022-09-21T11:23:38.855Z,99739.53
2022-09-21T11:26:10.898Z,99742.13
2022-09-21T11:28:47.224Z,99737.94
2022-09-21T11:31:45.361Z,99738.84
2022-09-21T11:34:47.180Z,99737.25
2022-09-21T11:37:20.321Z,99738.94
2022-09-21T11:39:50.668Z,99736.34
2022-09-21T11:42:26.090Z,99738.81
2022-09-21T11:44:56.072Z,99718.19
2022-09-21T11:47:50.511Z,99736.09
2022-09-21T11:54:00.112Z,99719.94
2022-09-21T11:56:49.579Z,99727.50
2022-09-21T11:59:25.566Z,99737.66
2022-09-21T12:02:00.419Z,99729.75
2022-09-21T12:04:42.194Z,99727.91
2022-09-21T12:07:34.461Z,99723.41
2022-09-21T12:10:13.476Z,99704.50
2022-09-21T12:12:43.637Z,99718.88
2022-09-21T12:15:33.337Z,99693.81
2022-09-21T12:18:18.717Z,99712.56
2022-09-21T12:20:48.602Z,99690.06
2022-09-21T12:23:23.511Z,99713.94
2022-09-21T12:25:53.466Z,99710.53
2022-09-21T12:28:29.027Z,99707.66
2022-09-21T12:31:00.779Z,99691.44
2022-09-21T12:33:37.947Z,99710.13
2022-09-21T12:36:27.607Z,99695.75
2022-09-21T12:39:08.401Z,99700.13
2022-09-21T12:42:05.780Z,99715.56
2022-09-21T12:44:33.933Z,99695.84
2022-09-21T12:47:09.791Z,99703.47
2022-09-21T12:49:45.040Z,99696.75
2022-09-21T12:52:21.652Z,99694.13
2022-09-21T12:55:00.492Z,99719.84
2022-09-21T12:58:04.436Z,99715.56
2022-09-21T13:00:46.510Z,99702.94
2022-09-21T13:03:44.083Z,99718.38
2022-09-21T13:06:47.008Z,99703.94
2022-09-21T13:09:15.559Z,99718.47
2022-09-21T13:11:52.724Z,99724.53
2022-09-21T13:14:19.708Z,99708.28
2022-09-21T13:16:46.674Z,99719.47
2022-09-21T13:19:13.575Z,99726.44
2022-09-21T13:21:40.723Z,99724.84
2022-09-21T13:24:13.897Z,99703.47
2022-09-21T13:26:44.747Z,99709.53
2022-09-21T13:29:17.793Z,99718.81
2022-09-21T13:32:24.032Z,99715.47
2022-09-21T13:34:51.691Z,99711.19
2022-09-21T13:37:18.586Z,99711.13
2022-09-21T13:40:04.319Z,99704.09
2022-09-21T13:42:37.547Z,99709.31
2022-09-21T13:45:13.870Z,99717.19
2022-09-21T13:47:47.630Z,99709.38
2022-09-21T13:50:33.617Z,99713.72
2022-09-21T13:53:02.719Z,99705.16
2022-09-21T13:55:33.993Z,99703.47
2022-09-21T13:58:04.899Z,99687.19
2022-09-21T14:00:42.105Z,99697.63
2022-09-21T14:03:22.646Z,99698.44
2022-09-21T14:05:52.208Z,99695.03
2022-09-21T14:08:26.400Z,99701.06
2022-09-21T14:10:56.311Z,99687.34
2022-09-21T14:13:32.678Z,99694.31
2022-09-21T14:16:51.212Z,99709.78
2022-09-21T14:19:18.616Z,99703.84
2022-09-21T14:22:03.969Z,99715.09
2022-09-21T14:24:51.073Z,99704.69
2022-09-21T14:27:26.807Z,99708.19
2022-09-21T14:30:06.291Z,99706.50
2022-09-21T14:32:50.851Z,99695.34
2022-09-21T14:35:24.643Z,99693.72
2022-09-21T14:38:34.233Z,99695.44
2022-09-21T14:41:03.859Z,99683.63
2022-09-21T14:43:36.502Z,99701.56
2022-09-21T14:46:30.992Z,99701.69
2022-09-21T14:49:20.167Z,99701.75
2022-09-21T14:52:04.279Z,99701.75
2022-09-21T14:54:45.537Z,99699.19
2022-09-21T14:57:24.699Z,99701.88
2022-09-21T15:00:04.942Z,99705.41
2022-09-21T15:02:34.769Z,99684.00
2022-09-21T15:05:28.626Z,99697.75
2022-09-21T15:08:35.421Z,99709.09
2022-09-21T15:11:26.531Z,99700.59
2022-09-21T15:14:22.822Z,99696.38
2022-09-21T15:16:51.892Z,99696.38
2022-09-21T15:19:18.990Z,99693.91
2022-09-21T15:21:56.046Z,99689.59
2022-09-21T15:24:56.367Z,99670.06
2022-09-21T15:27:32.196Z,99684.75
2022-09-21T15:30:37.684Z,99706.28
2022-09-21T15:33:08.044Z,99667.75
2022-09-21T15:35:38.131Z,99675.53
2022-09-21T15:38:25.892Z,99677.13
2022-09-21T15:40:52.978Z,99683.28
2022-09-21T15:43:21.058Z,99684.91
2022-09-21T15:45:58.076Z,99697.78
2022-09-21T15:48:38.722Z,99683.28
2022-09-21T15:51:19.493Z,99680.00
2022-09-21T15:54:34.667Z,99690.22
2022-09-21T16:24:25.170Z,99719.13
2022-09-21T16:27:42.244Z,99724.38
2022-09-21T16:37:51.468Z,99694.59
2022-09-21T16:40:22.732Z,99707.44
2022-09-21T16:42:52.981Z,99707.47
2022-09-21T16:45:38.902Z,99710.94
2022-09-21T16:48:08.210Z,99707.53
2022-09-21T16:53:26.757Z,99711.06
2022-09-21T16:55:57.336Z,99712.75
2022-09-21T17:01:11.633Z,99715.38
2022-09-21T17:03:42.254Z,99710.28
2022-09-21T17:06:22.586Z,99718.03
2022-09-21T17:08:50.223Z,99723.16
2022-09-21T17:11:30.001Z,99708.63
2022-09-21T17:14:10.025Z,99730.06
2022-09-21T17:16:48.052Z,99717.31
2022-09-21T17:56:53.498Z,99780.25
2022-09-21T17:59:41.184Z,99781.94
2022-09-21T18:02:47.963Z,99778.53
2022-09-21T18:05:29.782Z,99757.16
2022-09-21T18:08:23.154Z,99783.72
2022-09-21T18:34:07.695Z,99769.47
2022-09-21T18:36:38.301Z,99811.69
2022-09-21T18:39:41.577Z,99785.94
2022-09-21T18:42:26.891Z,99814.25
2022-09-21T18:45:05.397Z,99782.53
2022-09-21T18:47:44.649Z,99782.59
2022-09-21T19:08:03.908Z,99798.09
2022-09-21T19:10:59.267Z,99786.06
2022-09-21T19:14:33.947Z,99815.25
2022-09-21T19:17:19.087Z,99818.66
2022-09-21T19:20:30.979Z,99788.69
2022-09-21T19:33:03.293Z,99792.94
2022-09-21T21:22:22.688Z,99812.13
2022-09-21T21:24:50.671Z,99790.69
2022-09-21T21:27:22.446Z,99793.25
2022-09-21T21:29:53.586Z,99788.09
2022-09-21T21:32:25.700Z,99781.19
2022-09-21T21:34:55.313Z,99776.94
2022-09-21T21:37:29.571Z,99787.25
2022-09-21T21:56:58.469Z,99803.56
2022-09-21T21:59:26.492Z,99782.09
2022-09-21T22:02:05.383Z,99798.41
2022-09-21T22:04:41.154Z,99771.78
2022-09-21T22:07:26.525Z,99788.09
2022-09-21T22:09:57.048Z,99764.91
2022-09-21T22:12:28.417Z,99767.50
2022-09-21T22:15:03.889Z,99788.97
2022-09-21T22:17:35.567Z,99784.66
2022-09-21T22:20:07.292Z,99758.06
2022-09-21T22:22:41.792Z,99773.53
2022-09-21T22:25:12.678Z,99755.47
2022-09-21T22:27:43.483Z,99770.97
2022-09-21T22:30:17.012Z,99775.25
2022-09-21T22:32:49.037Z,99773.53
2022-09-21T22:35:21.110Z,99770.13
2022-09-21T22:37:55.769Z,99797.56
2022-09-21T22:40:29.723Z,99758.94
2022-09-21T22:43:03.965Z,99758.06
2022-09-21T22:45:38.468Z,99759.78
2022-09-21T22:48:10.798Z,99757.22
2022-09-21T22:50:42.438Z,99782.13
2022-09-21T22:53:21.604Z,99756.38
2022-09-21T22:55:58.557Z,99763.22
2022-09-21T23:04:19.192Z,99751.19
2022-09-21T23:06:49.789Z,99728.03
2022-09-21T23:09:18.922Z,99752.94
2022-09-21T23:11:49.505Z,99735.75
2022-09-21T23:14:17.562Z,99701.44
2022-09-21T23:16:44.973Z,99750.38
2022-09-21T23:19:21.575Z,99732.34
2022-09-21T23:21:50.307Z,99727.19
2022-09-21T23:24:18.613Z,99720.31
2022-09-21T23:26:45.871Z,99720.31
2022-09-21T23:29:16.029Z,99719.47
2022-09-21T23:31:46.609Z,99728.91
2022-09-21T23:34:14.936Z,99727.19
2022-09-21T23:36:42.648Z,99722.91
2022-09-21T23:39:12.017Z,99730.63
2022-09-21T23:41:39.343Z,99734.91
2022-09-21T23:44:06.982Z,99721.16
2022-09-21T23:46:36.267Z,99731.44
2022-09-21T23:49:04.032Z,99747.75
2022-09-21T23:51:31.362Z,99764.06
2022-09-21T23:53:58.724Z,99752.03
2022-09-21T23:56:25.870Z,99756.34
2022-09-21T23:58:56.609Z,99736.59
